Cheboksary, Russia
Current Conditions -  °F | °C
As of 11:00 AM on Thursday 18 Dec 2014 (Local Time) from UWKS Reporting Station
Snow Showers Snow Showers  
Wind Chill: 17°   Ceiling: 500
Heat Index: 28°   Visibility: 0.68mi
Dew Point: 28°   Wind: 16mph
Humidity: 100%   Direction: 200°SSW
Pressure: 29.74"   Gusts: NA
Location:  56.13°N, 47.25°E
Report Text: UWKS 180800Z 20007MPS 1100 SHSNRA OVC005CB M02/M02 Q1007 TEMPO0800 +SHSNRA VV002 RMK QBB150 QFE741 24590239
Loading
Personal Weather Stations






























Interactive Weather Map New forecast layout! Learn more

10-Day Weather Forecast

Advertisements
Track Severe Weather on mobile